createdAt,value
2023-02-14T00:02:20.301Z,1.43
2023-02-14T00:05:07.308Z,1.31
2023-02-14T00:07:54.245Z,1.44
2023-02-14T00:10:41.304Z,1.30
2023-02-14T00:13:28.283Z,1.22
2023-02-14T00:16:16.131Z,1.36
2023-02-14T00:19:01.657Z,1.42
2023-02-14T00:21:48.732Z,1.42
2023-02-14T00:24:41.810Z,1.39
2023-02-14T00:27:28.750Z,1.40
2023-02-14T00:30:15.846Z,1.43
2023-02-14T00:33:03.437Z,1.39
2023-02-14T00:35:50.522Z,1.44
2023-02-14T00:38:33.367Z,1.45
2023-02-14T00:41:00.723Z,1.46
2023-02-14T00:43:28.516Z,1.46
2023-02-14T00:45:55.553Z,1.47
2023-02-14T00:48:22.531Z,1.45
2023-02-14T00:50:49.523Z,1.35
2023-02-14T00:53:16.499Z,1.21
2023-02-14T00:55:45.692Z,1.49
2023-02-14T00:58:13.162Z,1.50
2023-02-14T01:00:40.336Z,1.50
2023-02-14T01:03:07.283Z,1.52
2023-02-14T01:05:34.351Z,1.53
2023-02-14T01:08:04.593Z,1.36
2023-02-14T01:10:31.865Z,1.55
2023-02-14T01:12:59.014Z,1.57
2023-02-14T01:15:29.240Z,1.57
2023-02-14T01:17:56.277Z,1.51
2023-02-14T01:20:23.305Z,1.60
2023-02-14T01:22:50.542Z,1.58
2023-02-14T01:25:17.918Z,1.50
2023-02-14T01:27:45.096Z,1.62
2023-02-14T01:30:14.357Z,1.63
2023-02-14T01:32:42.411Z,1.64
2023-02-14T01:35:10.230Z,1.60
2023-02-14T01:37:37.351Z,1.67
2023-02-14T01:40:06.158Z,1.61
2023-02-14T01:42:34.687Z,1.69
2023-02-14T01:45:50.994Z,1.70
2023-02-14T01:48:41.033Z,1.72
2023-02-14T01:51:28.209Z,1.72
2023-02-14T01:54:15.489Z,1.71
2023-02-14T01:57:09.852Z,1.68
2023-02-14T02:00:03.548Z,1.76
2023-02-14T02:03:00.350Z,1.75
2023-02-14T02:05:47.812Z,1.77
2023-02-14T02:08:35.160Z,1.78
2023-02-14T02:11:22.168Z,1.81
2023-02-14T02:14:09.219Z,1.81
2023-02-14T02:17:08.231Z,1.79
2023-02-14T02:20:04.619Z,1.82
2023-02-14T02:23:17.871Z,1.82
2023-02-14T02:26:33.341Z,1.81
2023-02-14T02:30:06.656Z,1.81
2023-02-14T02:32:59.609Z,1.81
2023-02-14T02:36:08.213Z,1.81
2023-02-14T02:39:13.642Z,1.80
2023-02-14T02:42:22.819Z,1.78
2023-02-14T02:45:31.513Z,1.77
2023-02-14T02:48:27.551Z,1.77
2023-02-14T02:51:17.611Z,1.75
2023-02-14T02:54:24.974Z,1.74
2023-02-14T02:57:16.150Z,1.73
2023-02-14T03:00:05.833Z,1.73
2023-02-14T03:02:56.704Z,1.71
2023-02-14T03:05:43.853Z,1.71
2023-02-14T03:08:30.825Z,1.63
2023-02-14T03:11:17.925Z,1.67
2023-02-14T03:14:32.709Z,1.65
2023-02-14T03:17:26.661Z,1.63
2023-02-14T03:20:48.481Z,1.61
2023-02-14T03:23:43.464Z,1.60
2023-02-14T03:26:38.222Z,1.57
2023-02-14T03:30:07.027Z,1.55
2023-02-14T03:33:02.499Z,1.54
2023-02-14T03:35:57.019Z,1.25
2023-02-14T03:38:54.073Z,1.46
2023-02-14T03:41:46.202Z,1.41
2023-02-14T03:44:40.112Z,1.48
2023-02-14T03:47:34.379Z,1.48
2023-02-14T03:50:40.500Z,1.40
2023-02-14T03:53:30.146Z,1.47
2023-02-14T03:56:26.597Z,1.46
2023-02-14T03:59:18.476Z,1.46
2023-02-14T04:02:19.772Z,1.46
2023-02-14T04:05:09.708Z,1.46
2023-02-14T04:08:06.661Z,1.38
2023-02-14T04:10:54.020Z,1.46
2023-02-14T04:13:41.209Z,1.45
2023-02-14T04:16:28.666Z,1.45
2023-02-14T04:19:14.200Z,0.72
2023-02-14T04:22:01.100Z,1.38
2023-02-14T04:24:48.019Z,1.44
2023-02-14T04:27:35.533Z,1.45
2023-02-14T04:30:22.567Z,1.46
2023-02-14T04:33:10.081Z,1.45
2023-02-14T04:35:57.261Z,1.45
2023-02-14T04:38:44.264Z,1.46
2023-02-14T04:41:31.240Z,1.47
2023-02-14T04:44:18.235Z,1.47
2023-02-14T04:47:05.210Z,1.42
2023-02-14T04:49:52.210Z,1.35
2023-02-14T04:52:39.122Z,1.49
2023-02-14T04:55:27.064Z,1.49
2023-02-14T04:58:14.166Z,1.49
2023-02-14T05:01:01.581Z,1.41
2023-02-14T05:03:48.712Z,1.24
2023-02-14T05:06:35.672Z,1.53
2023-02-14T05:09:23.478Z,1.54
2023-02-14T05:12:10.448Z,1.55
2023-02-14T05:14:57.412Z,1.53
2023-02-14T05:17:44.728Z,1.55
2023-02-14T05:20:31.853Z,1.56
2023-02-14T05:23:21.818Z,1.57
2023-02-14T05:26:09.327Z,1.51
2023-02-14T05:28:56.708Z,1.55
2023-02-14T05:31:44.164Z,1.34
2023-02-14T05:34:31.257Z,1.42
2023-02-14T05:37:18.256Z,1.61
2023-02-14T05:40:05.214Z,1.61
2023-02-14T05:42:52.152Z,1.63
2023-02-14T05:45:39.853Z,1.64
2023-02-14T05:48:27.044Z,1.65
2023-02-14T05:51:13.968Z,1.66
2023-02-14T05:54:00.944Z,1.52
2023-02-14T05:56:47.910Z,1.68
2023-02-14T05:59:34.874Z,1.69
2023-02-14T06:02:21.799Z,1.71
2023-02-14T06:05:08.750Z,1.58
2023-02-14T06:07:55.724Z,1.74
2023-02-14T06:10:44.287Z,1.76
2023-02-14T06:13:31.218Z,1.76
2023-02-14T06:16:18.308Z,1.78
2023-02-14T06:19:05.303Z,1.67
2023-02-14T06:21:52.328Z,1.82
2023-02-14T06:24:39.289Z,1.83
2023-02-14T06:27:26.198Z,1.84
2023-02-14T06:30:13.273Z,1.86
2023-02-14T06:33:00.301Z,1.86
2023-02-14T06:35:47.251Z,1.85
2023-02-14T06:38:34.317Z,1.91
2023-02-14T06:41:29.141Z,1.92
2023-02-14T06:44:16.148Z,1.94
2023-02-14T06:47:03.137Z,1.94
2023-02-14T06:49:50.214Z,1.99
2023-02-14T06:52:37.250Z,1.97
2023-02-14T06:55:24.203Z,1.93
2023-02-14T06:58:11.115Z,1.83
2023-02-14T07:00:58.228Z,2.02
2023-02-14T07:03:46.866Z,2.09
2023-02-14T07:06:33.736Z,2.10
2023-02-14T07:09:20.847Z,2.13
2023-02-14T07:12:07.953Z,2.14
2023-02-14T07:14:54.858Z,2.17
2023-02-14T07:17:41.895Z,2.18
2023-02-14T07:20:30.494Z,2.22
2023-02-14T07:23:17.459Z,2.18
2023-02-14T07:26:04.509Z,2.11
2023-02-14T07:28:52.190Z,2.20
2023-02-14T07:31:39.483Z,2.19
2023-02-14T07:34:26.539Z,2.30
2023-02-14T07:37:13.371Z,2.34
2023-02-14T07:40:00.401Z,2.29
2023-02-14T07:42:47.396Z,2.37
2023-02-14T07:45:34.475Z,2.37
2023-02-14T07:48:21.486Z,1.74
2023-02-14T07:51:09.004Z,2.18
2023-02-14T07:53:56.055Z,2.46
2023-02-14T07:56:43.071Z,2.44
2023-02-14T07:59:29.946Z,2.45
2023-02-14T08:02:16.954Z,2.54
2023-02-14T08:05:03.878Z,2.41
2023-02-14T08:07:50.781Z,2.59
2023-02-14T08:10:37.784Z,2.55
2023-02-14T08:13:24.853Z,2.61
2023-02-14T08:16:26.554Z,2.65
2023-02-14T08:19:13.704Z,2.56
2023-02-14T08:22:00.607Z,2.48
2023-02-14T08:24:47.634Z,2.74
2023-02-14T08:27:34.416Z,2.75
2023-02-14T08:30:21.520Z,2.78
2023-02-14T08:33:08.378Z,2.79
2023-02-14T08:35:56.562Z,2.83
2023-02-14T08:38:43.508Z,2.54
2023-02-14T08:41:31.080Z,2.88
2023-02-14T08:44:17.974Z,2.92
2023-02-14T08:47:05.270Z,2.94
2023-02-14T08:49:52.128Z,2.97
2023-02-14T08:52:39.239Z,3.01
2023-02-14T08:55:27.036Z,3.03
2023-02-14T08:58:17.013Z,3.06
2023-02-14T09:01:04.206Z,3.03
2023-02-14T09:03:51.323Z,3.09
2023-02-14T09:06:38.294Z,3.18
2023-02-14T09:09:25.987Z,3.22
2023-02-14T09:12:12.887Z,3.27
2023-02-14T09:15:04.849Z,3.31
2023-02-14T09:17:51.688Z,3.35
2023-02-14T09:20:38.721Z,3.40
2023-02-14T09:23:25.597Z,3.43
2023-02-14T09:26:20.333Z,3.48
2023-02-14T09:29:07.958Z,3.34
2023-02-14T09:31:54.981Z,3.43
2023-02-14T09:34:42.266Z,3.61
2023-02-14T09:37:31.424Z,3.49
2023-02-14T09:40:18.693Z,3.62
2023-02-14T09:43:16.865Z,3.70
2023-02-14T09:46:11.320Z,3.66
2023-02-14T09:49:01.769Z,3.84
2023-02-14T09:51:51.666Z,3.92
2023-02-14T09:54:44.506Z,3.95
2023-02-14T09:57:35.033Z,4.04
2023-02-14T10:00:31.414Z,4.11
2023-02-14T10:04:19.557Z,4.19
2023-02-14T10:07:09.065Z,3.77
2023-02-14T10:10:04.804Z,4.31
2023-02-14T10:13:10.560Z,4.15
2023-02-14T10:16:02.721Z,4.35
2023-02-14T10:19:12.992Z,4.50
2023-02-14T10:22:14.488Z,4.55
2023-02-14T10:25:11.562Z,4.61
2023-02-14T10:28:01.638Z,4.67
2023-02-14T10:30:58.437Z,4.72
2023-02-14T10:33:52.418Z,4.43
2023-02-14T10:37:17.020Z,4.84
2023-02-14T10:40:31.086Z,4.88
2023-02-14T10:43:43.567Z,4.90
2023-02-14T10:46:33.542Z,4.99
2023-02-14T10:49:32.848Z,5.03
2023-02-14T10:52:25.608Z,5.08
2023-02-14T10:55:31.395Z,5.13
2023-02-14T10:58:23.399Z,5.10
2023-02-14T11:01:10.311Z,5.21
2023-02-14T11:03:59.885Z,5.24
2023-02-14T11:06:47.155Z,5.26
2023-02-14T11:09:34.007Z,5.30
2023-02-14T11:12:21.215Z,5.36
2023-02-14T11:15:08.177Z,5.42
2023-02-14T11:17:55.166Z,5.41
2023-02-14T11:20:46.883Z,5.37
2023-02-14T11:23:41.802Z,5.51
2023-02-14T11:26:40.941Z,5.52
2023-02-14T11:29:35.031Z,5.55
2023-02-14T11:32:28.145Z,5.59
2023-02-14T11:35:23.049Z,5.60
2023-02-14T11:38:11.923Z,5.54
2023-02-14T11:41:00.584Z,5.65
2023-02-14T11:43:53.674Z,5.18
2023-02-14T11:46:52.305Z,5.70
2023-02-14T11:49:44.800Z,5.71
2023-02-14T11:52:37.437Z,5.75
2023-02-14T11:55:25.129Z,5.77
2023-02-14T11:58:12.730Z,5.79
2023-02-14T12:00:59.930Z,5.81
2023-02-14T12:03:49.321Z,5.80
2023-02-14T12:06:49.278Z,5.85
2023-02-14T12:09:42.568Z,5.87
2023-02-14T12:12:42.296Z,5.88
2023-02-14T12:15:44.724Z,5.91
2023-02-14T12:18:55.700Z,5.94
2023-02-14T12:22:07.493Z,5.96
2023-02-14T12:25:06.037Z,5.97
2023-02-14T12:28:09.110Z,5.99
2023-02-14T12:30:56.143Z,5.98
2023-02-14T12:33:46.336Z,5.75
2023-02-14T12:36:57.014Z,5.91
2023-02-14T12:39:58.246Z,6.10
2023-02-14T12:42:35.125Z,6.08
2023-02-14T12:45:47.062Z,6.11
2023-02-14T12:48:43.994Z,6.13
2023-02-14T12:51:24.102Z,6.13
2023-02-14T12:54:28.625Z,6.08
2023-02-14T12:57:07.679Z,6.16
2023-02-14T13:00:09.949Z,6.18
2023-02-14T13:02:43.105Z,6.19
2023-02-14T13:05:27.258Z,6.20
2023-02-14T13:08:08.645Z,6.09
2023-02-14T13:11:04.581Z,6.21
2023-02-14T13:13:53.071Z,6.24
2023-02-14T13:16:23.101Z,6.24
2023-02-14T13:18:58.387Z,6.25
2023-02-14T13:21:37.630Z,6.25
2023-02-14T13:24:20.186Z,6.25
2023-02-14T13:26:54.019Z,6.14
2023-02-14T13:29:23.835Z,6.28
2023-02-14T13:31:53.423Z,6.00
2023-02-14T13:34:44.770Z,6.30
2023-02-14T13:37:14.018Z,6.29
2023-02-14T13:39:49.063Z,6.21
2023-02-14T13:42:47.879Z,6.32
2023-02-14T13:45:30.418Z,6.32
2023-02-14T13:48:13.875Z,6.33
2023-02-14T13:51:00.086Z,5.89
2023-02-14T13:53:42.260Z,6.33
2023-02-14T13:56:12.233Z,6.33
2023-02-14T13:59:01.470Z,6.33
2023-02-14T14:01:48.583Z,6.33
2023-02-14T14:04:31.970Z,6.32
2023-02-14T14:07:05.261Z,6.33
2023-02-14T14:09:41.276Z,6.32
2023-02-14T14:12:26.334Z,6.30
2023-02-14T14:15:17.602Z,6.30
2023-02-14T14:18:09.109Z,6.30
2023-02-14T14:20:43.944Z,6.29
2023-02-14T14:23:31.400Z,6.29
2023-02-14T14:25:59.090Z,6.13
2023-02-14T14:28:28.868Z,6.27
2023-02-14T14:30:55.975Z,6.27
2023-02-14T14:33:32.790Z,6.25
2023-02-14T14:36:26.328Z,6.23
2023-02-14T14:39:14.171Z,6.22
2023-02-14T14:42:01.158Z,6.21
2023-02-14T14:44:48.527Z,6.22
2023-02-14T14:47:40.758Z,6.21
2023-02-14T14:50:34.337Z,6.20
2023-02-14T14:53:24.348Z,6.20
2023-02-14T14:56:11.379Z,6.18
2023-02-14T14:59:01.237Z,6.18
2023-02-14T15:01:59.634Z,6.17
2023-02-14T15:04:46.901Z,6.17
2023-02-14T15:07:53.347Z,6.11
2023-02-14T15:10:51.121Z,6.14
2023-02-14T15:13:37.103Z,6.12
2023-02-14T15:16:24.460Z,6.08
2023-02-14T15:19:16.410Z,6.06
2023-02-14T15:22:03.886Z,5.94
2023-02-14T15:24:51.633Z,6.01
2023-02-14T15:27:42.469Z,5.94
2023-02-14T15:30:49.417Z,5.94
2023-02-14T15:33:36.456Z,5.95
2023-02-14T15:36:28.019Z,5.92
2023-02-14T15:38:57.497Z,5.88
2023-02-14T15:41:26.837Z,5.81
2023-02-14T15:43:56.677Z,5.82
2023-02-14T15:46:39.348Z,5.78
2023-02-14T15:49:10.677Z,5.72
2023-02-14T15:51:39.023Z,5.28
2023-02-14T15:54:19.400Z,5.62
2023-02-14T15:56:50.693Z,5.53
2023-02-14T15:59:23.761Z,5.50
2023-02-14T16:01:55.044Z,5.47
2023-02-14T16:04:33.841Z,5.28
2023-02-14T16:07:21.613Z,5.33
2023-02-14T16:09:49.596Z,5.07
2023-02-14T16:12:32.615Z,5.28
2023-02-14T16:15:37.581Z,5.22
2023-02-14T16:18:37.977Z,5.17
2023-02-14T16:21:35.538Z,5.11
2023-02-14T16:24:28.206Z,5.05
2023-02-14T16:27:15.746Z,5.00
2023-02-14T16:30:02.589Z,4.82
2023-02-14T16:32:50.530Z,4.48
2023-02-14T16:35:41.411Z,4.80
2023-02-14T16:38:33.698Z,4.63
2023-02-14T16:41:20.676Z,4.68
2023-02-14T16:44:08.842Z,4.62
2023-02-14T16:46:55.862Z,4.55
2023-02-14T16:49:43.035Z,4.37
2023-02-14T16:52:45.828Z,4.42
2023-02-14T16:55:37.732Z,4.31
2023-02-14T16:58:24.692Z,4.29
2023-02-14T17:01:11.734Z,4.23
2023-02-14T17:03:58.639Z,4.19
2023-02-14T17:06:47.874Z,3.93
2023-02-14T17:09:37.901Z,4.06
2023-02-14T17:12:30.369Z,4.01
2023-02-14T17:15:20.538Z,3.95
2023-02-14T17:18:09.257Z,3.89
2023-02-14T17:20:56.402Z,3.58
2023-02-14T17:23:43.441Z,3.78
2023-02-14T17:26:30.232Z,3.72
2023-02-14T17:29:17.201Z,3.68
2023-02-14T17:32:04.262Z,3.62
2023-02-14T17:34:54.382Z,3.57
2023-02-14T17:37:41.331Z,3.49
2023-02-14T17:40:29.643Z,3.43
2023-02-14T17:43:17.312Z,3.38
2023-02-14T17:46:04.305Z,3.34
2023-02-14T17:48:51.207Z,3.30
2023-02-14T17:51:38.494Z,3.23
2023-02-14T17:54:25.455Z,3.19
2023-02-14T17:57:12.518Z,3.07
2023-02-14T17:59:59.329Z,3.08
2023-02-14T18:02:46.382Z,3.00
2023-02-14T18:05:33.344Z,2.99
2023-02-14T18:08:20.529Z,2.95
2023-02-14T18:11:07.394Z,2.92
2023-02-14T18:13:55.134Z,2.86
2023-02-14T18:16:43.003Z,2.82
2023-02-14T18:19:29.972Z,2.77
2023-02-14T18:22:16.875Z,2.13
2023-02-14T18:25:03.962Z,2.66
2023-02-14T18:27:51.588Z,2.64
2023-02-14T18:30:38.602Z,2.60
2023-02-14T18:33:25.709Z,2.56
2023-02-14T18:36:12.728Z,2.04
2023-02-14T18:39:01.297Z,2.49
2023-02-14T18:41:48.860Z,2.45
2023-02-14T18:44:35.985Z,2.42
2023-02-14T18:47:23.089Z,2.36
2023-02-14T18:50:09.996Z,2.34
2023-02-14T18:52:57.997Z,2.31
2023-02-14T18:55:45.001Z,2.26
2023-02-14T18:58:32.046Z,2.23
2023-02-14T19:01:19.129Z,2.16
2023-02-14T19:04:06.620Z,2.03
2023-02-14T19:06:53.621Z,2.09
2023-02-14T19:09:40.678Z,2.05
2023-02-14T19:12:27.664Z,2.05
2023-02-14T19:15:14.639Z,2.01
2023-02-14T19:18:01.590Z,1.95
2023-02-14T19:20:49.502Z,1.97
2023-02-14T19:23:36.573Z,1.89
2023-02-14T19:26:35.436Z,1.63
2023-02-14T19:29:25.076Z,1.90
2023-02-14T19:32:13.942Z,1.86
2023-02-14T19:35:00.972Z,1.82
2023-02-14T19:37:47.936Z,1.81
2023-02-14T19:40:34.888Z,1.79
2023-02-14T19:43:21.859Z,1.78
2023-02-14T19:46:08.849Z,1.74
2023-02-14T19:48:55.982Z,1.74
2023-02-14T19:51:51.801Z,1.73
2023-02-14T19:54:38.701Z,1.71
2023-02-14T19:57:25.548Z,1.71
2023-02-14T20:00:12.467Z,1.70
2023-02-14T20:02:59.419Z,1.67
2023-02-14T20:05:46.335Z,1.67
2023-02-14T20:08:33.213Z,1.69
2023-02-14T20:11:20.190Z,1.66
2023-02-14T20:14:07.191Z,1.68
2023-02-14T20:16:56.584Z,1.63
2023-02-14T20:19:45.835Z,1.68
2023-02-14T20:22:32.847Z,1.67
2023-02-14T20:25:19.943Z,1.68
2023-02-14T20:28:06.889Z,1.60
2023-02-14T20:30:53.899Z,1.55
2023-02-14T20:33:40.965Z,1.67
2023-02-14T20:36:28.907Z,1.67
2023-02-14T20:39:16.938Z,1.56
2023-02-14T20:42:03.813Z,1.63
2023-02-14T20:44:51.014Z,1.38
2023-02-14T20:47:37.927Z,1.64
2023-02-14T20:50:25.394Z,1.63
2023-02-14T20:53:12.394Z,1.51
2023-02-14T20:56:00.267Z,1.60
2023-02-14T20:58:49.882Z,1.26
2023-02-14T21:01:39.037Z,1.59
2023-02-14T21:04:26.438Z,1.58
2023-02-14T21:07:13.465Z,1.48
2023-02-14T21:10:00.416Z,1.57
2023-02-14T21:12:47.415Z,1.25
2023-02-14T21:15:34.504Z,1.55
2023-02-14T21:18:21.499Z,1.52
2023-02-14T21:21:08.401Z,1.54
2023-02-14T21:23:55.393Z,1.54
2023-02-14T21:26:42.333Z,1.53
2023-02-14T21:29:30.121Z,1.51
2023-02-14T21:32:17.084Z,1.37
2023-02-14T21:35:04.261Z,1.47
2023-02-14T21:37:52.441Z,1.53
2023-02-14T21:40:39.477Z,1.51
2023-02-14T21:43:26.422Z,1.52
2023-02-14T21:46:13.493Z,1.52
2023-02-14T21:48:59.901Z,1.53
2023-02-14T21:51:47.166Z,1.53
2023-02-14T21:54:34.826Z,1.49
2023-02-14T21:57:21.846Z,1.53
2023-02-14T22:00:08.755Z,1.53
2023-02-14T22:02:58.607Z,1.49
2023-02-14T22:05:45.717Z,1.38
2023-02-14T22:08:32.603Z,1.53
2023-02-14T22:11:23.981Z,1.52
2023-02-14T22:14:11.270Z,1.53
2023-02-14T22:16:58.261Z,1.54
2023-02-14T22:19:45.222Z,1.50
2023-02-14T22:22:32.152Z,1.55
2023-02-14T22:25:19.024Z,1.54
2023-02-14T22:28:05.852Z,1.56
2023-02-14T22:30:52.740Z,1.49
2023-02-14T22:33:39.669Z,1.56
2023-02-14T22:36:27.628Z,1.27
2023-02-14T22:39:14.579Z,1.57
2023-02-14T22:42:01.899Z,1.58
2023-02-14T22:44:48.927Z,1.58
2023-02-14T22:47:36.045Z,1.59
2023-02-14T22:50:22.997Z,1.51
2023-02-14T22:53:09.892Z,1.62
2023-02-14T22:55:56.838Z,1.62
2023-02-14T22:58:43.831Z,1.62
2023-02-14T23:01:39.158Z,1.58
2023-02-14T23:04:26.289Z,1.20
2023-02-14T23:07:13.767Z,1.65
2023-02-14T23:10:00.874Z,1.65
2023-02-14T23:12:46.445Z,1.65
2023-02-14T23:15:32.030Z,1.65
2023-02-14T23:18:17.746Z,1.58
2023-02-14T23:21:03.417Z,1.63
2023-02-14T23:23:53.797Z,1.65
2023-02-14T23:26:40.814Z,1.65
2023-02-14T23:29:27.970Z,1.62
2023-02-14T23:32:15.262Z,1.66
2023-02-14T23:35:04.069Z,1.67
2023-02-14T23:37:51.101Z,1.67
2023-02-14T23:40:38.178Z,1.66
2023-02-14T23:43:25.202Z,1.66
2023-02-14T23:46:12.120Z,1.66
2023-02-14T23:48:59.120Z,1.61
2023-02-14T23:51:46.080Z,1.65
2023-02-14T23:54:33.472Z,1.65
2023-02-14T23:57:20.648Z,1.65
